createdAt,value
2022-11-14T00:00:33.345Z,101.90
2022-11-14T00:03:18.393Z,85.80
2022-11-14T00:06:06.555Z,96.90
2022-11-14T00:08:51.646Z,86.50
2022-11-14T00:11:37.172Z,102.00
2022-11-14T00:14:22.037Z,100.20
2022-11-14T00:17:07.215Z,82.30
2022-11-14T00:19:52.119Z,94.50
2022-11-14T00:22:37.061Z,77.40
2022-11-14T00:25:22.545Z,93.70
2022-11-14T00:28:08.360Z,93.00
2022-11-14T00:30:53.743Z,85.10
2022-11-14T00:33:38.444Z,96.60
2022-11-14T00:36:23.330Z,95.10
2022-11-14T00:39:13.107Z,96.00
2022-11-14T00:41:58.344Z,92.00
2022-11-14T00:44:43.986Z,96.50
2022-11-14T00:47:29.281Z,94.30
2022-11-14T00:50:15.833Z,96.20
2022-11-14T00:53:00.752Z,74.10
2022-11-14T00:55:45.569Z,87.80
2022-11-14T00:58:30.713Z,94.70
2022-11-14T01:01:16.669Z,94.40
2022-11-14T01:04:02.026Z,92.50
2022-11-14T01:06:47.032Z,93.90
2022-11-14T01:09:32.732Z,94.90
2022-11-14T01:12:17.591Z,92.90
2022-11-14T01:15:03.176Z,92.80
2022-11-14T01:17:48.490Z,90.80
2022-11-14T01:20:33.367Z,96.50
2022-11-14T01:23:18.826Z,99.50
2022-11-14T01:26:07.483Z,99.90
2022-11-14T01:28:53.169Z,91.30
2022-11-14T01:31:37.948Z,98.20
2022-11-14T01:34:23.398Z,97.60
2022-11-14T01:37:08.866Z,96.20
2022-11-14T01:39:54.008Z,98.80
2022-11-14T01:42:39.575Z,97.90
2022-11-14T01:45:49.093Z,103.20
2022-11-14T01:48:34.253Z,100.80
2022-11-14T01:51:23.016Z,107.20
2022-11-14T01:54:16.169Z,99.00
2022-11-14T01:57:04.244Z,95.90
2022-11-14T01:59:52.853Z,106.70
2022-11-14T02:02:38.318Z,106.70
2022-11-14T02:05:23.981Z,103.80
2022-11-14T02:08:13.312Z,100.40
2022-11-14T02:10:58.257Z,98.70
2022-11-14T02:13:43.932Z,105.50
2022-11-14T02:16:29.005Z,102.00
2022-11-14T02:19:15.220Z,106.10
2022-11-14T02:25:04.670Z,105.30
2022-11-14T02:27:50.962Z,103.00
2022-11-14T02:30:36.165Z,107.70
2022-11-14T02:33:20.949Z,107.30
2022-11-14T02:36:06.863Z,102.50
2022-11-14T02:38:52.236Z,102.70
2022-11-14T02:41:37.296Z,111.50
2022-11-14T02:44:22.989Z,105.30
2022-11-14T02:47:08.307Z,108.20
2022-11-14T02:49:53.823Z,105.90
2022-11-14T02:52:38.736Z,114.60
2022-11-14T02:55:23.950Z,116.30
2022-11-14T02:58:09.045Z,109.00
2022-11-14T03:01:19.237Z,107.80
2022-11-14T03:03:59.404Z,112.50
2022-11-14T03:06:44.384Z,108.10
2022-11-14T03:09:29.793Z,109.30
2022-11-14T03:12:18.630Z,110.60
2022-11-14T03:15:07.738Z,110.70
2022-11-14T03:17:52.663Z,108.00
2022-11-14T03:20:38.795Z,110.10
2022-11-14T03:23:24.014Z,104.90
2022-11-14T03:26:10.863Z,109.20
2022-11-14T03:28:55.786Z,104.30
2022-11-14T03:31:40.765Z,112.80
2022-11-14T03:34:25.850Z,105.60
2022-11-14T03:37:11.379Z,109.10
2022-11-14T03:39:56.719Z,97.80
2022-11-14T03:42:42.024Z,106.30
2022-11-14T03:45:27.237Z,102.20
2022-11-14T03:48:13.097Z,98.40
2022-11-14T03:50:58.405Z,102.60
2022-11-14T03:53:43.340Z,115.90
2022-11-14T03:56:28.401Z,103.70
2022-11-14T03:59:13.199Z,105.00
2022-11-14T04:01:58.326Z,100.00
2022-11-14T04:04:43.087Z,108.40
2022-11-14T04:07:27.870Z,91.50
2022-11-14T04:10:13.065Z,107.20
2022-11-14T04:12:57.812Z,106.60
2022-11-14T04:15:42.871Z,108.90
2022-11-14T04:18:28.633Z,101.70
2022-11-14T04:21:13.982Z,109.70
2022-11-14T04:23:58.728Z,107.80
2022-11-14T04:26:43.454Z,99.00
2022-11-14T04:29:28.492Z,103.60
2022-11-14T04:32:13.804Z,105.40
2022-11-14T04:34:58.730Z,106.00
2022-11-14T04:37:44.027Z,103.60
2022-11-14T04:40:29.310Z,104.10
2022-11-14T04:43:14.031Z,113.80
2022-11-14T04:45:59.007Z,104.50
2022-11-14T04:48:43.864Z,102.20
2022-11-14T04:51:29.026Z,105.00
2022-11-14T04:54:14.254Z,106.80
2022-11-14T04:56:59.375Z,102.80
2022-11-14T04:59:44.112Z,105.60
2022-11-14T05:02:32.335Z,112.80
2022-11-14T05:05:17.114Z,112.60
2022-11-14T05:08:02.206Z,105.10
2022-11-14T05:10:47.334Z,105.50
2022-11-14T05:13:32.600Z,100.50
2022-11-14T05:16:17.862Z,106.70
2022-11-14T05:19:02.664Z,103.50
2022-11-14T05:21:47.843Z,102.60
2022-11-14T05:24:33.457Z,103.20
2022-11-14T05:27:18.382Z,104.20
2022-11-14T05:30:03.903Z,103.80
2022-11-14T05:32:51.397Z,115.90
2022-11-14T05:35:36.089Z,101.90
2022-11-14T05:38:21.908Z,101.30
2022-11-14T05:41:09.699Z,99.80
2022-11-14T05:43:55.102Z,102.80
2022-11-14T05:46:42.715Z,100.70
2022-11-14T05:49:28.144Z,102.20
2022-11-14T05:52:15.374Z,98.80
2022-11-14T05:55:01.000Z,100.50
2022-11-14T05:57:48.651Z,95.30
2022-11-14T06:00:40.895Z,98.50
2022-11-14T06:03:32.459Z,94.90
2022-11-14T06:06:19.620Z,101.50
2022-11-14T06:09:04.676Z,90.80
2022-11-14T06:11:50.569Z,93.30
2022-11-14T06:14:35.707Z,91.60
2022-11-14T06:17:20.635Z,95.20
2022-11-14T06:20:07.099Z,90.80
2022-11-14T06:22:54.211Z,95.50
2022-11-14T06:25:39.327Z,91.50
2022-11-14T06:28:24.098Z,83.50
2022-11-14T06:31:08.916Z,86.60
2022-11-14T06:33:54.287Z,89.60
2022-11-14T06:36:39.427Z,90.60
2022-11-14T06:39:24.741Z,76.10
2022-11-14T06:42:09.969Z,78.70
2022-11-14T06:44:54.865Z,85.20
2022-11-14T06:47:41.869Z,83.70
2022-11-14T06:50:26.941Z,79.80
2022-11-14T06:53:12.061Z,86.80
2022-11-14T06:56:04.945Z,87.90
2022-11-14T06:58:50.199Z,84.50
2022-11-14T07:01:34.991Z,81.30
2022-11-14T07:04:19.911Z,84.40
2022-11-14T07:07:05.245Z,89.80
2022-11-14T07:09:50.341Z,83.10
2022-11-14T07:12:35.538Z,84.40
2022-11-14T07:15:20.622Z,86.00
2022-11-14T07:18:05.783Z,85.00
2022-11-14T07:20:57.841Z,76.30
2022-11-14T07:23:43.501Z,87.20
2022-11-14T07:26:28.985Z,85.90
2022-11-14T07:29:14.170Z,79.90
2022-11-14T07:31:59.514Z,80.70
2022-11-14T07:34:45.267Z,77.40
2022-11-14T07:37:30.837Z,85.30
2022-11-14T07:40:17.139Z,77.00
2022-11-14T07:43:03.399Z,76.80
2022-11-14T07:45:49.401Z,80.40
2022-11-14T07:48:35.059Z,83.50
2022-11-14T07:51:20.335Z,79.40
2022-11-14T07:54:05.646Z,79.60
2022-11-14T07:56:50.959Z,85.10
2022-11-14T07:59:36.235Z,81.30
2022-11-14T08:02:21.408Z,75.10
2022-11-14T08:05:07.115Z,84.30
2022-11-14T08:07:52.583Z,83.00
2022-11-14T08:10:37.522Z,78.80
2022-11-14T08:13:32.299Z,82.30
2022-11-14T08:16:18.218Z,82.00
2022-11-14T08:19:03.227Z,85.10
2022-11-14T08:21:48.472Z,85.00
2022-11-14T08:24:33.314Z,85.90
2022-11-14T08:27:18.138Z,88.80
2022-11-14T08:30:03.785Z,82.70
2022-11-14T08:32:50.559Z,88.70
2022-11-14T08:35:35.705Z,88.80
2022-11-14T08:38:21.122Z,86.40
2022-11-14T08:41:06.711Z,84.40
2022-11-14T08:43:51.684Z,89.60
2022-11-14T08:46:39.137Z,90.60
2022-11-14T08:49:24.039Z,89.80
2022-11-14T08:52:13.715Z,105.40
2022-11-14T08:55:02.065Z,90.70
2022-11-14T08:57:49.698Z,83.00
2022-11-14T09:00:35.271Z,75.10
2022-11-14T09:03:20.044Z,76.70
2022-11-14T09:06:05.586Z,83.20
2022-11-14T09:08:50.466Z,86.60
2022-11-14T09:11:35.449Z,80.10
2022-11-14T09:14:20.427Z,77.70
2022-11-14T09:17:06.225Z,76.50
2022-11-14T09:19:51.778Z,76.10
2022-11-14T09:22:36.867Z,78.70
2022-11-14T09:25:22.313Z,75.30
2022-11-14T09:28:08.755Z,77.90
2022-11-14T09:31:04.637Z,79.70
2022-11-14T09:33:50.181Z,81.60
2022-11-14T09:36:35.632Z,75.30
2022-11-14T09:39:20.662Z,76.30
2022-11-14T09:42:37.751Z,74.80
2022-11-14T09:45:22.761Z,73.20
2022-11-14T09:48:13.802Z,69.50
2022-11-14T09:51:13.135Z,68.70
2022-11-14T09:54:07.961Z,73.00
2022-11-14T09:56:53.841Z,70.30
2022-11-14T09:59:38.870Z,69.70
2022-11-14T10:02:31.844Z,67.70
2022-11-14T10:05:45.578Z,66.10
2022-11-14T10:08:50.014Z,69.30
2022-11-14T10:11:39.473Z,67.70
2022-11-14T10:14:27.574Z,69.70
2022-11-14T10:17:23.092Z,66.00
2022-11-14T10:20:43.878Z,67.50
2022-11-14T10:23:43.103Z,65.20
2022-11-14T10:26:35.049Z,62.10
2022-11-14T10:30:10.166Z,65.90
2022-11-14T10:33:04.586Z,61.80
2022-11-14T10:36:12.311Z,60.20
2022-11-14T10:39:40.261Z,64.50
2022-11-14T10:42:36.194Z,64.70
2022-11-14T10:45:37.204Z,63.80
2022-11-14T10:48:41.446Z,60.80
2022-11-14T10:51:39.613Z,61.20
2022-11-14T10:54:40.463Z,65.20
2022-11-14T10:57:28.223Z,63.70
2022-11-14T11:00:19.045Z,59.60
2022-11-14T11:03:04.527Z,60.50
2022-11-14T11:05:51.395Z,58.70
2022-11-14T11:09:02.019Z,60.90
2022-11-14T11:12:02.494Z,64.50
2022-11-14T11:14:52.771Z,64.20
2022-11-14T11:17:43.008Z,64.10
2022-11-14T11:20:40.552Z,59.90
2022-11-14T11:23:27.039Z,60.40
2022-11-14T11:26:31.740Z,62.40
2022-11-14T11:29:19.215Z,62.30
2022-11-14T11:32:04.503Z,61.50
2022-11-14T11:34:51.442Z,63.00
2022-11-14T11:37:41.719Z,62.70
2022-11-14T11:40:28.386Z,62.80
2022-11-14T11:43:40.656Z,60.50
2022-11-14T11:46:36.032Z,60.40
2022-11-14T11:49:29.538Z,56.80
2022-11-14T11:52:39.208Z,67.60
2022-11-14T11:55:27.844Z,56.00
2022-11-14T11:58:35.698Z,63.10
2022-11-14T12:01:21.144Z,58.50
2022-11-14T12:04:06.511Z,62.40
2022-11-14T12:07:11.763Z,61.30
2022-11-14T12:10:13.888Z,57.30
2022-11-14T12:13:07.860Z,58.10
2022-11-14T12:16:19.477Z,57.10
2022-11-14T12:19:04.840Z,59.30
2022-11-14T12:22:27.801Z,52.30
2022-11-14T12:25:28.429Z,53.90
2022-11-14T12:28:19.654Z,57.00
2022-11-14T12:31:09.870Z,52.70
2022-11-14T12:34:04.287Z,56.10
2022-11-14T12:36:50.527Z,49.90
2022-11-14T12:39:35.554Z,52.30
2022-11-14T12:42:24.000Z,53.00
2022-11-14T12:45:39.452Z,50.90
2022-11-14T12:48:28.367Z,50.70
2022-11-14T12:51:45.633Z,46.30
2022-11-14T12:54:45.630Z,48.80
2022-11-14T12:58:06.499Z,48.50
2022-11-14T13:00:59.227Z,47.10
2022-11-14T13:04:02.466Z,52.30
2022-11-14T13:07:05.483Z,49.30
2022-11-14T13:10:09.088Z,45.30
2022-11-14T13:13:25.583Z,46.80
2022-11-14T13:16:49.018Z,46.20
2022-11-14T13:19:54.923Z,46.50
2022-11-14T13:22:42.187Z,45.50
2022-11-14T13:25:27.459Z,43.50
2022-11-14T13:28:38.436Z,46.70
2022-11-14T13:31:44.800Z,45.70
2022-11-14T13:34:45.925Z,42.70
2022-11-14T13:38:12.685Z,43.20
2022-11-14T13:41:46.166Z,42.60
2022-11-14T13:44:50.974Z,44.10
2022-11-14T13:47:48.327Z,46.70
2022-11-14T13:50:36.754Z,47.20
2022-11-14T13:53:27.520Z,47.20
2022-11-14T13:56:30.571Z,43.60
2022-11-14T13:59:50.896Z,42.20
2022-11-14T14:02:53.829Z,47.70
2022-11-14T14:06:10.892Z,47.90
2022-11-14T14:09:14.968Z,43.20
2022-11-14T14:12:18.266Z,41.80
2022-11-14T14:15:31.285Z,45.30
2022-11-14T14:18:48.772Z,44.80
2022-11-14T14:21:47.415Z,51.60
2022-11-14T14:24:41.488Z,54.10
2022-11-14T14:27:36.733Z,53.00
2022-11-14T14:30:22.173Z,53.20
2022-11-14T14:33:08.023Z,57.70
2022-11-14T14:35:53.870Z,57.30
2022-11-14T14:38:40.605Z,60.30
2022-11-14T14:41:31.217Z,63.30
2022-11-14T14:44:31.472Z,67.60
2022-11-14T14:47:39.006Z,73.00
2022-11-14T14:50:28.306Z,80.70
2022-11-14T14:53:25.035Z,82.90
2022-11-14T14:56:24.297Z,79.10
2022-11-14T14:59:22.502Z,84.60
2022-11-14T15:02:17.940Z,77.10
2022-11-14T15:05:04.569Z,82.70
2022-11-14T15:07:52.887Z,80.40
2022-11-14T15:10:38.889Z,94.50
2022-11-14T15:13:25.868Z,99.00
2022-11-14T15:16:11.655Z,83.30
2022-11-14T15:18:57.975Z,96.60
2022-11-14T15:21:43.440Z,89.80
2022-11-14T15:24:29.900Z,99.20
2022-11-14T15:27:18.248Z,116.40
2022-11-14T15:30:07.496Z,105.60
2022-11-14T15:32:55.946Z,76.00
2022-11-14T15:35:41.304Z,90.20
2022-11-14T15:38:43.604Z,78.70
2022-11-14T15:41:33.129Z,91.50
2022-11-14T15:44:32.999Z,102.10
2022-11-14T15:47:26.577Z,111.80
2022-11-14T15:50:12.132Z,111.20
2022-11-14T15:53:03.736Z,104.80
2022-11-14T15:55:49.996Z,100.60
2022-11-14T15:58:36.382Z,98.30
2022-11-14T16:01:25.810Z,96.40
2022-11-14T16:04:15.860Z,99.80
2022-11-14T16:07:04.334Z,93.80
2022-11-14T16:09:49.922Z,101.40
2022-11-14T16:12:35.999Z,99.70
2022-11-14T16:15:21.630Z,100.50
2022-11-14T16:18:07.027Z,110.90
2022-11-14T16:20:58.219Z,102.70
2022-11-14T16:23:43.484Z,109.70
2022-11-14T16:26:29.760Z,112.50
2022-11-14T16:29:15.523Z,98.20
2022-11-14T16:32:01.217Z,96.70
2022-11-14T16:34:46.192Z,98.60
2022-11-14T16:37:32.619Z,101.50
2022-11-14T16:40:24.949Z,101.20
2022-11-14T16:43:13.355Z,108.20
2022-11-14T16:46:02.986Z,117.10
2022-11-14T16:48:48.669Z,109.00
2022-11-14T16:51:48.332Z,115.80
2022-11-14T16:54:35.284Z,132.80
2022-11-14T16:57:20.827Z,139.10
2022-11-14T17:00:08.806Z,134.60
2022-11-14T17:02:54.439Z,128.30
2022-11-14T17:05:49.099Z,120.20
2022-11-14T17:08:34.691Z,117.70
2022-11-14T17:11:19.860Z,118.70
2022-11-14T17:14:05.526Z,112.80
2022-11-14T17:16:50.930Z,103.80
2022-11-14T17:19:45.117Z,109.70
2022-11-14T17:22:30.538Z,113.40
2022-11-14T17:25:16.561Z,113.90
2022-11-14T17:28:03.142Z,118.20
2022-11-14T17:30:48.814Z,110.20
2022-11-14T17:33:34.658Z,111.80
2022-11-14T17:36:21.795Z,117.60
2022-11-14T17:39:06.944Z,118.50
2022-11-14T17:41:52.091Z,114.50
2022-11-14T17:44:37.128Z,112.90
2022-11-14T17:47:22.440Z,118.40
2022-11-14T17:50:08.939Z,110.00
2022-11-14T17:52:54.235Z,127.00
2022-11-14T17:55:39.403Z,132.00
2022-11-14T17:58:30.822Z,128.60
2022-11-14T18:01:20.636Z,116.40
2022-11-14T18:04:06.954Z,119.00
2022-11-14T18:06:54.587Z,110.90
2022-11-14T18:09:41.268Z,103.80
2022-11-14T18:12:27.659Z,100.40
2022-11-14T18:15:14.830Z,101.20
2022-11-14T18:18:01.175Z,107.80
2022-11-14T18:20:47.182Z,100.40
2022-11-14T18:23:32.760Z,100.20
2022-11-14T18:26:21.168Z,99.30
2022-11-14T18:29:07.410Z,99.80
2022-11-14T18:31:53.180Z,92.10
2022-11-14T18:34:40.895Z,99.40
2022-11-14T18:37:29.965Z,100.60
2022-11-14T18:40:16.933Z,112.30
2022-11-14T18:43:03.389Z,118.10
2022-11-14T18:45:52.875Z,127.00
2022-11-14T18:48:40.131Z,122.30
2022-11-14T18:51:28.641Z,117.00
2022-11-14T18:54:16.068Z,117.60
2022-11-14T18:57:02.868Z,115.00
2022-11-14T18:59:51.622Z,102.40
2022-11-14T19:02:37.234Z,105.90
2022-11-14T19:05:23.334Z,110.90
2022-11-14T19:08:09.155Z,102.70
2022-11-14T19:11:03.994Z,109.80
2022-11-14T19:13:51.503Z,122.30
2022-11-14T19:16:38.859Z,117.00
2022-11-14T19:19:24.884Z,123.30
2022-11-14T19:22:10.303Z,133.60
2022-11-14T19:24:57.815Z,121.20
2022-11-14T19:30:44.897Z,142.40
2022-11-14T19:33:32.637Z,135.10
2022-11-14T19:36:45.323Z,143.40
2022-11-14T19:39:30.360Z,166.90
2022-11-14T19:42:17.250Z,159.60
2022-11-14T19:45:04.231Z,143.40
2022-11-14T19:47:51.448Z,130.00
2022-11-14T19:50:39.210Z,115.80
2022-11-14T19:53:26.679Z,108.40
2022-11-14T19:56:18.341Z,119.60
2022-11-14T19:59:11.005Z,121.00
2022-11-14T20:02:00.493Z,127.20
2022-11-14T20:04:48.018Z,120.50
2022-11-14T20:07:37.845Z,120.50
2022-11-14T20:10:24.962Z,119.40
2022-11-14T20:13:11.925Z,110.80
2022-11-14T20:16:00.553Z,109.40
2022-11-14T20:18:58.637Z,119.30
2022-11-14T20:21:46.575Z,124.10
2022-11-14T20:24:34.322Z,123.90
2022-11-14T20:27:21.774Z,101.60
2022-11-14T20:30:09.096Z,91.30
2022-11-14T20:32:56.548Z,89.80
2022-11-14T20:35:45.047Z,97.90
2022-11-14T20:38:33.255Z,99.90
2022-11-14T20:41:21.174Z,106.50
2022-11-14T20:44:08.966Z,111.60
2022-11-14T20:46:57.359Z,104.20
2022-11-14T20:49:47.178Z,96.80
2022-11-14T20:52:35.398Z,101.50
2022-11-14T20:55:21.702Z,102.10
2022-11-14T20:58:09.166Z,102.40
2022-11-14T21:00:56.801Z,103.00
2022-11-14T21:03:44.044Z,103.80
2022-11-14T21:06:30.610Z,107.80
2022-11-14T21:09:19.461Z,98.20
2022-11-14T21:12:06.961Z,106.70
2022-11-14T21:14:53.893Z,116.30
2022-11-14T21:17:40.756Z,108.00
2022-11-14T21:20:27.523Z,107.30
2022-11-14T21:23:14.550Z,103.60
2022-11-14T21:26:11.188Z,108.60
2022-11-14T21:29:02.227Z,102.60
2022-11-14T21:31:49.438Z,96.00
2022-11-14T21:34:36.372Z,100.70
2022-11-14T21:37:22.967Z,105.80
2022-11-14T21:40:09.984Z,105.00
2022-11-14T21:42:56.565Z,84.60
2022-11-14T21:45:43.198Z,90.20
2022-11-14T21:48:31.443Z,95.20
2022-11-14T21:51:24.120Z,90.50
2022-11-14T21:54:11.291Z,89.90
2022-11-14T21:57:03.142Z,82.40
2022-11-14T21:59:52.475Z,81.00
2022-11-14T22:02:57.823Z,74.80
2022-11-14T22:05:44.399Z,82.30
2022-11-14T22:08:31.189Z,92.50
2022-11-14T22:11:18.086Z,91.70
2022-11-14T22:14:05.084Z,88.80
2022-11-14T22:16:51.941Z,92.90
2022-11-14T22:19:38.437Z,96.70
2022-11-14T22:22:25.286Z,96.50
2022-11-14T22:25:11.944Z,97.80
2022-11-14T22:27:58.152Z,102.40
2022-11-14T22:30:45.015Z,103.60
2022-11-14T22:33:34.219Z,103.10
2022-11-14T22:36:25.623Z,100.30
2022-11-14T22:39:12.023Z,105.90
2022-11-14T22:41:58.789Z,107.10
2022-11-14T22:44:45.345Z,119.00
2022-11-14T22:47:31.984Z,123.70
2022-11-14T22:50:19.185Z,132.00
2022-11-14T22:53:05.862Z,121.90
2022-11-14T22:55:52.721Z,113.80
2022-11-14T22:58:41.785Z,105.00
2022-11-14T23:01:31.536Z,87.10
2022-11-14T23:04:18.260Z,83.60
2022-11-14T23:07:04.885Z,94.20
2022-11-14T23:09:51.567Z,93.00
2022-11-14T23:12:38.287Z,90.50
2022-11-14T23:15:25.507Z,118.50
2022-11-14T23:18:12.852Z,94.10
2022-11-14T23:21:07.017Z,86.90
2022-11-14T23:23:55.263Z,83.60
2022-11-14T23:26:41.697Z,85.80
2022-11-14T23:29:28.581Z,108.80
2022-11-14T23:32:15.458Z,86.10
2022-11-14T23:35:01.729Z,96.10
2022-11-14T23:37:48.437Z,105.40
2022-11-14T23:40:34.961Z,84.70
2022-11-14T23:43:21.624Z,79.90
2022-11-14T23:46:08.391Z,109.70
2022-11-14T23:48:55.240Z,74.00
2022-11-14T23:51:41.658Z,71.20
2022-11-14T23:54:28.808Z,72.80
2022-11-14T23:57:15.687Z,97.90
